Jenkintown, Pennsylvania
Current Conditions -  °F | °C
As of 12:54 PM on Thursday 30 Oct 2014 (Local Time) from KPNE Reporting Station
Clear Clear  
Wind Chill: 59°   Ceiling: Unl
Heat Index: 59°   Visibility: 10mi
Dew Point: 37°   Wind: 9mph
Humidity: 44%   Direction: 340°NNW
Pressure: 30.02"   Gusts: NA
Location:  40.1°N, 75.13°W
Report Text: KPNE 301654Z 34008KT 10SM CLR 15/03 A3002 RMK AO2 SLP166 T01500028 $
Loading
Personal Weather Stations






























Interactive Weather Map
Tropical Storm Tracking
New forecast layout! Learn more

10-Day Weather Forecast

Advertisements
Track Severe Weather on mobile